sensor_id;sensor_type;location;lat;lon;timestamp;temperature;humidity
18297;DHT22;18066;52.106;5.534;2023-03-03T00:37:02;2.80;99.90
18297;DHT22;18066;52.106;5.534;2023-03-03T00:48:06;2.40;99.90
18297;DHT22;18066;52.106;5.534;2023-03-03T01:58:48;2.70;99.90
18297;DHT22;18066;52.106;5.534;2023-03-03T03:21:50;2.30;99.90
18297;DHT22;18066;52.106;5.534;2023-03-03T04:10:21;2.40;99.90
18297;DHT22;18066;52.106;5.534;2023-03-03T04:13:19;2.20;99.90
18297;DHT22;18066;52.106;5.534;2023-03-03T04:19:52;2.20;99.90
18297;DHT22;18066;52.106;5.534;2023-03-03T04:26:16;2.10;99.90
18297;DHT22;18066;52.106;5.534;2023-03-03T04:35:59;2.00;99.90
18297;DHT22;18066;52.106;5.534;2023-03-03T04:39:10;2.00;99.90
18297;DHT22;18066;52.106;5.534;2023-03-03T04:59:31;2.40;99.90
18297;DHT22;18066;52.106;5.534;2023-03-03T05:37:49;2.70;99.90
18297;DHT22;18066;52.106;5.534;2023-03-03T05:40:58;2.60;99.90
18297;DHT22;18066;52.106;5.534;2023-03-03T11:43:05;7.90;99.90
18297;DHT22;18066;52.106;5.534;2023-03-03T11:53:49;8.20;99.90
18297;DHT22;18066;52.106;5.534;2023-03-03T11:56:49;8.50;99.90
18297;DHT22;18066;52.106;5.534;2023-03-03T12:26:31;9.30;99.90
18297;DHT22;18066;52.106;5.534;2023-03-03T12:39:37;8.80;99.90
18297;DHT22;18066;52.106;5.534;2023-03-03T12:53:38;9.30;99.90
18297;DHT22;18066;52.106;5.534;2023-03-03T12:57:08;9.20;99.90
18297;DHT22;18066;52.106;5.534;2023-03-03T13:08:27;9.20;99.90
18297;DHT22;18066;52.106;5.534;2023-03-03T13:12:00;9.10;99.90
18297;DHT22;18066;52.106;5.534;2023-03-03T13:15:42;9.00;99.90
18297;DHT22;18066;52.106;5.534;2023-03-03T13:20:02;9.10;99.90
18297;DHT22;18066;52.106;5.534;2023-03-03T13:22:04;9.40;99.90
18297;DHT22;18066;52.106;5.534;2023-03-03T13:25:18;9.10;99.90
18297;DHT22;18066;52.106;5.534;2023-03-03T15:16:23;8.60;99.90
18297;DHT22;18066;52.106;5.534;2023-03-03T15:19:46;8.30;99.90
18297;DHT22;18066;52.106;5.534;2023-03-03T15:26:22;8.50;99.90
18297;DHT22;18066;52.106;5.534;2023-03-03T15:32:34;8.40;99.90
18297;DHT22;18066;52.106;5.534;2023-03-03T15:35:31;8.30;99.90
18297;DHT22;18066;52.106;5.534;2023-03-03T15:38:30;8.40;99.90
18297;DHT22;18066;52.106;5.534;2023-03-03T15:41:21;8.50;99.90
18297;DHT22;18066;52.106;5.534;2023-03-03T15:44:18;8.50;99.90
18297;DHT22;18066;52.106;5.534;2023-03-03T15:47:12;8.70;99.90
18297;DHT22;18066;52.106;5.534;2023-03-03T15:50:27;8.30;99.90
18297;DHT22;18066;52.106;5.534;2023-03-03T15:53:47;8.30;99.90
18297;DHT22;18066;52.106;5.534;2023-03-03T15:56:59;8.20;99.90
18297;DHT22;18066;52.106;5.534;2023-03-03T16:03:19;8.10;99.90
18297;DHT22;18066;52.106;5.534;2023-03-03T16:05:53;8.30;99.90
18297;DHT22;18066;52.106;5.534;2023-03-03T16:12:06;8.20;99.90
18297;DHT22;18066;52.106;5.534;2023-03-03T16:15:33;8.00;99.90
18297;DHT22;18066;52.106;5.534;2023-03-03T16:18:25;8.00;99.90
18297;DHT22;18066;52.106;5.534;2023-03-03T16:31:02;7.80;99.90
18297;DHT22;18066;52.106;5.534;2023-03-03T16:33:49;7.80;99.90
18297;DHT22;18066;52.106;5.534;2023-03-03T16:36:51;7.70;99.90
18297;DHT22;18066;52.106;5.534;2023-03-03T16:39:50;7.60;99.90
18297;DHT22;18066;52.106;5.534;2023-03-03T16:46:10;7.40;99.90
18297;DHT22;18066;52.106;5.534;2023-03-03T16:52:42;7.50;99.90
18297;DHT22;18066;52.106;5.534;2023-03-03T16:55:14;7.50;99.90
18297;DHT22;18066;52.106;5.534;2023-03-03T16:57:49;7.50;99.90
18297;DHT22;18066;52.106;5.534;2023-03-03T17:00:20;7.60;99.90
18297;DHT22;18066;52.106;5.534;2023-03-03T17:05:43;7.50;99.90
18297;DHT22;18066;52.106;5.534;2023-03-03T17:08:33;7.50;99.90
18297;DHT22;18066;52.106;5.534;2023-03-03T17:11:08;7.50;99.90
18297;DHT22;18066;52.106;5.534;2023-03-03T17:13:56;7.50;99.90
18297;DHT22;18066;52.106;5.534;2023-03-03T17:16:29;7.40;99.90
18297;DHT22;18066;52.106;5.534;2023-03-03T17:19:11;7.40;99.90
18297;DHT22;18066;52.106;5.534;2023-03-03T17:21:58;7.30;99.90
18297;DHT22;18066;52.106;5.534;2023-03-03T17:24:37;7.20;99.90
18297;DHT22;18066;52.106;5.534;2023-03-03T17:27:12;7.30;99.90
18297;DHT22;18066;52.106;5.534;2023-03-03T17:29:55;7.30;99.90
18297;DHT22;18066;52.106;5.534;2023-03-03T17:32:45;7.30;99.90
18297;DHT22;18066;52.106;5.534;2023-03-03T17:35:37;7.20;99.90
18297;DHT22;18066;52.106;5.534;2023-03-03T17:38:13;7.00;99.90
18297;DHT22;18066;52.106;5.534;2023-03-03T17:40:54;7.00;99.90
18297;DHT22;18066;52.106;5.534;2023-03-03T17:43:27;7.00;99.90
18297;DHT22;18066;52.106;5.534;2023-03-03T17:45:59;7.10;99.90
18297;DHT22;18066;52.106;5.534;2023-03-03T17:54:35;7.20;99.90
18297;DHT22;18066;52.106;5.534;2023-03-03T17:57:19;7.00;99.90
18297;DHT22;18066;52.106;5.534;2023-03-03T18:00:21;7.10;99.90
18297;DHT22;18066;52.106;5.534;2023-03-03T18:03:17;7.10;99.90
18297;DHT22;18066;52.106;5.534;2023-03-03T18:08:56;7.20;99.90
18297;DHT22;18066;52.106;5.534;2023-03-03T18:11:37;7.10;99.90
18297;DHT22;18066;52.106;5.534;2023-03-03T18:14:17;7.00;99.90
18297;DHT22;18066;52.106;5.534;2023-03-03T18:20:00;6.90;99.90
18297;DHT22;18066;52.106;5.534;2023-03-03T18:22:31;6.90;99.90
18297;DHT22;18066;52.106;5.534;2023-03-03T18:25:03;6.90;99.90
18297;DHT22;18066;52.106;5.534;2023-03-03T18:27:37;7.00;99.90
18297;DHT22;18066;52.106;5.534;2023-03-03T18:33:15;6.90;99.90
18297;DHT22;18066;52.106;5.534;2023-03-03T18:36:12;6.90;99.90
18297;DHT22;18066;52.106;5.534;2023-03-03T18:38:42;7.00;99.90
18297;DHT22;18066;52.106;5.534;2023-03-03T18:41:11;6.90;99.90
18297;DHT22;18066;52.106;5.534;2023-03-03T18:43:56;6.80;99.90
18297;DHT22;18066;52.106;5.534;2023-03-03T18:46:46;6.80;99.90
18297;DHT22;18066;52.106;5.534;2023-03-03T18:49:15;6.80;99.90
18297;DHT22;18066;52.106;5.534;2023-03-03T18:52:15;6.80;99.90
18297;DHT22;18066;52.106;5.534;2023-03-03T18:58:00;6.80;99.90
18297;DHT22;18066;52.106;5.534;2023-03-03T19:00:28;6.80;99.90
18297;DHT22;18066;52.106;5.534;2023-03-03T19:02:58;6.80;99.90
18297;DHT22;18066;52.106;5.534;2023-03-03T19:05:35;6.80;99.90
18297;DHT22;18066;52.106;5.534;2023-03-03T19:08:19;6.80;99.90
18297;DHT22;18066;52.106;5.534;2023-03-03T19:10:55;6.80;99.90
18297;DHT22;18066;52.106;5.534;2023-03-03T19:13:39;6.90;99.90
18297;DHT22;18066;52.106;5.534;2023-03-03T19:16:06;6.90;99.90
18297;DHT22;18066;52.106;5.534;2023-03-03T19:18:35;7.00;99.90
18297;DHT22;18066;52.106;5.534;2023-03-03T19:21:26;7.00;99.90
18297;DHT22;18066;52.106;5.534;2023-03-03T19:23:55;7.10;99.90
18297;DHT22;18066;52.106;5.534;2023-03-03T19:26:54;7.00;99.90
18297;DHT22;18066;52.106;5.534;2023-03-03T19:29:46;7.10;99.90
18297;DHT22;18066;52.106;5.534;2023-03-03T19:35:17;7.00;99.90
18297;DHT22;18066;52.106;5.534;2023-03-03T19:37:53;6.90;99.90
18297;DHT22;18066;52.106;5.534;2023-03-03T19:40:26;6.90;99.90
18297;DHT22;18066;52.106;5.534;2023-03-03T19:43:02;6.90;99.90
18297;DHT22;18066;52.106;5.534;2023-03-03T19:45:44;6.90;99.90
18297;DHT22;18066;52.106;5.534;2023-03-03T19:48:23;6.80;99.90
18297;DHT22;18066;52.106;5.534;2023-03-03T19:50:57;6.90;99.90
18297;DHT22;18066;52.106;5.534;2023-03-03T19:53:34;6.90;99.90
18297;DHT22;18066;52.106;5.534;2023-03-03T19:56:12;6.90;99.90
18297;DHT22;18066;52.106;5.534;2023-03-03T19:58:49;7.00;99.90
18297;DHT22;18066;52.106;5.534;2023-03-03T20:01:22;7.00;99.90
18297;DHT22;18066;52.106;5.534;2023-03-03T20:04:11;7.10;99.90
18297;DHT22;18066;52.106;5.534;2023-03-03T20:06:54;7.00;99.90
18297;DHT22;18066;52.106;5.534;2023-03-03T20:09:32;7.00;99.90
18297;DHT22;18066;52.106;5.534;2023-03-03T20:12:10;7.00;99.90
18297;DHT22;18066;52.106;5.534;2023-03-03T20:14:43;7.20;99.90
18297;DHT22;18066;52.106;5.534;2023-03-03T20:17:22;7.20;99.90
18297;DHT22;18066;52.106;5.534;2023-03-03T20:19:55;7.20;99.90
18297;DHT22;18066;52.106;5.534;2023-03-03T20:22:32;7.10;99.90
18297;DHT22;18066;52.106;5.534;2023-03-03T20:25:24;7.00;99.90
18297;DHT22;18066;52.106;5.534;2023-03-03T20:28:00;7.10;99.90
18297;DHT22;18066;52.106;5.534;2023-03-03T20:30:46;7.10;99.90
18297;DHT22;18066;52.106;5.534;2023-03-03T20:33:30;7.20;99.90
18297;DHT22;18066;52.106;5.534;2023-03-03T20:36:09;7.10;99.90
18297;DHT22;18066;52.106;5.534;2023-03-03T20:38:47;7.10;99.90
18297;DHT22;18066;52.106;5.534;2023-03-03T20:41:26;7.20;99.90
18297;DHT22;18066;52.106;5.534;2023-03-03T20:44:05;7.20;99.90
18297;DHT22;18066;52.106;5.534;2023-03-03T20:46:41;7.20;99.90
18297;DHT22;18066;52.106;5.534;2023-03-03T20:49:24;7.20;99.90
18297;DHT22;18066;52.106;5.534;2023-03-03T20:51:56;7.20;99.90
18297;DHT22;18066;52.106;5.534;2023-03-03T20:54:31;7.20;99.90
18297;DHT22;18066;52.106;5.534;2023-03-03T20:57:08;7.00;99.90
18297;DHT22;18066;52.106;5.534;2023-03-03T20:59:42;7.00;99.90
18297;DHT22;18066;52.106;5.534;2023-03-03T21:02:16;7.00;99.90
18297;DHT22;18066;52.106;5.534;2023-03-03T21:04:45;7.00;99.90
18297;DHT22;18066;52.106;5.534;2023-03-03T21:07:23;6.80;99.90
18297;DHT22;18066;52.106;5.534;2023-03-03T21:10:09;6.90;99.90
18297;DHT22;18066;52.106;5.534;2023-03-03T21:12:38;7.00;99.90
18297;DHT22;18066;52.106;5.534;2023-03-03T21:15:07;7.20;99.90
18297;DHT22;18066;52.106;5.534;2023-03-03T21:17:37;7.20;99.90
18297;DHT22;18066;52.106;5.534;2023-03-03T21:20:24;7.20;99.90
18297;DHT22;18066;52.106;5.534;2023-03-03T21:22:51;7.30;99.90
18297;DHT22;18066;52.106;5.534;2023-03-03T21:25:43;7.20;99.90
18297;DHT22;18066;52.106;5.534;2023-03-03T21:28:18;7.20;99.90
18297;DHT22;18066;52.106;5.534;2023-03-03T21:31:12;7.20;99.90
18297;DHT22;18066;52.106;5.534;2023-03-03T21:33:45;7.10;99.90
18297;DHT22;18066;52.106;5.534;2023-03-03T21:36:13;7.10;99.90
18297;DHT22;18066;52.106;5.534;2023-03-03T21:38:41;7.10;99.90
18297;DHT22;18066;52.106;5.534;2023-03-03T21:41:08;7.00;99.90
18297;DHT22;18066;52.106;5.534;2023-03-03T21:43:38;6.80;99.90
18297;DHT22;18066;52.106;5.534;2023-03-03T21:46:05;6.80;99.90
18297;DHT22;18066;52.106;5.534;2023-03-03T21:48:32;6.80;99.90
18297;DHT22;18066;52.106;5.534;2023-03-03T21:50:58;6.90;99.90
18297;DHT22;18066;52.106;5.534;2023-03-03T21:53:25;6.90;99.90
18297;DHT22;18066;52.106;5.534;2023-03-03T21:55:54;6.90;99.90
18297;DHT22;18066;52.106;5.534;2023-03-03T21:58:21;6.90;99.90
18297;DHT22;18066;52.106;5.534;2023-03-03T22:00:49;6.90;99.90
18297;DHT22;18066;52.106;5.534;2023-03-03T22:03:16;6.80;99.90
18297;DHT22;18066;52.106;5.534;2023-03-03T22:05:45;7.10;99.90
18297;DHT22;18066;52.106;5.534;2023-03-03T22:08:13;7.20;99.90
18297;DHT22;18066;52.106;5.534;2023-03-03T22:10:42;7.20;99.90
18297;DHT22;18066;52.106;5.534;2023-03-03T22:13:10;7.20;99.90
18297;DHT22;18066;52.106;5.534;2023-03-03T22:15:38;7.20;99.90
18297;DHT22;18066;52.106;5.534;2023-03-03T22:18:06;7.20;99.90
18297;DHT22;18066;52.106;5.534;2023-03-03T22:20:33;7.20;99.90
18297;DHT22;18066;52.106;5.534;2023-03-03T22:23:00;7.00;99.90
18297;DHT22;18066;52.106;5.534;2023-03-03T22:25:26;7.10;99.90
18297;DHT22;18066;52.106;5.534;2023-03-03T22:27:53;7.00;99.90
18297;DHT22;18066;52.106;5.534;2023-03-03T22:30:20;7.00;99.90
18297;DHT22;18066;52.106;5.534;2023-03-03T22:32:47;7.00;99.90
18297;DHT22;18066;52.106;5.534;2023-03-03T22:35:18;7.10;99.90
18297;DHT22;18066;52.106;5.534;2023-03-03T22:37:44;7.10;99.90
18297;DHT22;18066;52.106;5.534;2023-03-03T22:40:12;7.10;99.90
18297;DHT22;18066;52.106;5.534;2023-03-03T22:42:39;7.00;99.90
18297;DHT22;18066;52.106;5.534;2023-03-03T22:45:06;7.10;99.90
18297;DHT22;18066;52.106;5.534;2023-03-03T22:47:34;7.00;99.90
18297;DHT22;18066;52.106;5.534;2023-03-03T22:50:01;6.90;99.90
18297;DHT22;18066;52.106;5.534;2023-03-03T22:52:29;6.70;99.90
18297;DHT22;18066;52.106;5.534;2023-03-03T22:54:56;6.60;99.90
18297;DHT22;18066;52.106;5.534;2023-03-03T22:57:23;6.60;99.90
18297;DHT22;18066;52.106;5.534;2023-03-03T22:59:50;6.60;99.90
18297;DHT22;18066;52.106;5.534;2023-03-03T23:02:17;6.70;99.90
18297;DHT22;18066;52.106;5.534;2023-03-03T23:04:43;6.70;99.90
18297;DHT22;18066;52.106;5.534;2023-03-03T23:07:10;6.70;99.90
18297;DHT22;18066;52.106;5.534;2023-03-03T23:09:38;6.80;99.90
18297;DHT22;18066;52.106;5.534;2023-03-03T23:12:06;6.70;99.90
18297;DHT22;18066;52.106;5.534;2023-03-03T23:14:32;6.70;99.90
18297;DHT22;18066;52.106;5.534;2023-03-03T23:16:59;6.70;99.90
18297;DHT22;18066;52.106;5.534;2023-03-03T23:19:26;6.80;99.90
18297;DHT22;18066;52.106;5.534;2023-03-03T23:21:53;6.80;99.90
18297;DHT22;18066;52.106;5.534;2023-03-03T23:24:20;6.90;99.90
18297;DHT22;18066;52.106;5.534;2023-03-03T23:26:48;6.80;99.90
18297;DHT22;18066;52.106;5.534;2023-03-03T23:29:16;6.80;99.90
18297;DHT22;18066;52.106;5.534;2023-03-03T23:31:43;6.80;99.90
18297;DHT22;18066;52.106;5.534;2023-03-03T23:34:09;6.90;99.90
18297;DHT22;18066;52.106;5.534;2023-03-03T23:36:36;7.00;99.90
18297;DHT22;18066;52.106;5.534;2023-03-03T23:39:03;7.00;99.90
18297;DHT22;18066;52.106;5.534;2023-03-03T23:41:30;7.10;99.90
18297;DHT22;18066;52.106;5.534;2023-03-03T23:43:58;7.00;99.90
18297;DHT22;18066;52.106;5.534;2023-03-03T23:46:24;7.00;99.90
18297;DHT22;18066;52.106;5.534;2023-03-03T23:48:52;7.00;99.90
18297;DHT22;18066;52.106;5.534;2023-03-03T23:51:19;6.90;99.90
18297;DHT22;18066;52.106;5.534;2023-03-03T23:53:45;6.90;99.90
18297;DHT22;18066;52.106;5.534;2023-03-03T23:56:12;6.90;99.90
18297;DHT22;18066;52.106;5.534;2023-03-03T23:58:39;6.90;99.90
